^^
NorthLandsweather Station Historical Data
 
Daily Summary for February 21, 2019 Units:  English    Metric   Both
Daily Weekly Monthly Yearly Custom
  Current: High: Low: Average:
Temperature: 23.4 °F 26.5 °F 20.4 °F 23.7 °F
Dew Point: 19.0 °F 24.0 °F 17.1 °F 20.6 °F
Humidity: 83% 90% 82% 88%
Wind Speed: 2.3mph 4.6mph 0.0mph 0.5mph
Wind Gust: 0.0mph 1.7mph - -
WindSouth - - SW
Pressure: 30.15 in 30.15 in 29.77 in -
Precipitation: 0.01 in      
Historical Graphs
 
 
Tabular Data for February 21, 2019
Time Temperature Dew Point Pressure Wind Wind Speed Wind Gust Humidity Rainfall Rate (Hourly) solar
00:04 26.2 °F 23.7 °F 29.77 in West 2.3 mph 0.2 mph 90% 0.00 in 143.10 W/m2
00:09 26.3 °F 23.8 °F 29.77 in Calm     90% 0.00 in 143.10 W/m2
00:14 26.2 °F 23.4 °F 29.77 in Calm     89% 0.00 in 143.10 W/m2
00:19 26.2 °F 23.7 °F 29.77 in Calm     90% 0.00 in 143.10 W/m2
00:24 26.2 °F 23.7 °F 29.77 in Calm     90% 0.00 in 143.10 W/m2
00:29 26.2 °F 23.4 °F 29.77 in Calm     89% 0.00 in 143.10 W/m2
00:34 26.2 °F 23.4 °F 29.78 in Calm     89% 0.00 in 143.10 W/m2
00:39 26.3 °F 23.5 °F 29.78 in Calm     89% 0.00 in 143.10 W/m2
00:44 26.3 °F 23.5 °F 29.78 in Calm     89% 0.00 in 143.10 W/m2
00:49 26.4 °F 23.9 °F 29.78 in Calm     90% 0.00 in 143.10 W/m2
00:54 26.5 °F 24.0 °F 29.78 in Calm     90% 0.00 in 143.10 W/m2
00:59 26.5 °F 24.0 °F 29.79 in Calm     90% 0.00 in 143.10 W/m2
01:04 26.4 °F 23.6 °F 29.79 in Calm     89% 0.00 in 143.10 W/m2
01:09 26.5 °F 23.7 °F 29.79 in Calm     89% 0.00 in 143.10 W/m2
01:14 26.4 °F 23.6 °F 29.79 in West 1.2 mph   89% 0.00 in 143.10 W/m2
01:19 26.4 °F 23.6 °F 29.80 in Calm     89% 0.00 in 143.10 W/m2
01:24 26.5 °F 23.7 °F 29.80 in Calm     89% 0.00 in 143.10 W/m2
01:29 26.4 °F 23.6 °F 29.80 in Calm     89% 0.00 in 143.10 W/m2
01:34 26.4 °F 23.6 °F 29.80 in Calm   0.6 mph 89% 0.00 in 143.10 W/m2
01:39 26.4 °F 23.6 °F 29.81 in SW 2.3 mph   89% 0.00 in 143.10 W/m2
01:44 26.5 °F 23.7 °F 29.81 in Calm     89% 0.00 in 143.10 W/m2
01:49 26.4 °F 23.6 °F 29.81 in Calm     89% 0.00 in 143.10 W/m2
01:54 26.3 °F 23.5 °F 29.81 in Calm     89% 0.00 in 143.10 W/m2
01:59 26.4 °F 23.6 °F 29.82 in Calm     89% 0.00 in 143.10 W/m2
02:04 26.3 °F 23.5 °F 29.82 in Calm     89% 0.00 in 143.10 W/m2
02:09 26.3 °F 23.5 °F 29.82 in Calm     89% 0.00 in 143.10 W/m2
02:14 26.4 °F 23.6 °F 29.82 in Calm     89% 0.00 in 143.10 W/m2
02:19 26.3 °F 23.5 °F 29.83 in Calm     89% 0.00 in 143.10 W/m2
02:24 26.2 °F 23.4 °F 29.83 in Calm     89% 0.00 in 143.10 W/m2
02:29 26.2 °F 23.4 °F 29.83 in Calm     89% 0.00 in 143.10 W/m2
02:34 26.1 °F 23.3 °F 29.83 in Calm     89% 0.00 in 143.10 W/m2
02:39 26.0 °F 23.2 °F 29.83 in WNW 2.3 mph   89% 0.00 in 143.10 W/m2
02:44 25.8 °F 23.0 °F 29.84 in Calm     89% 0.00 in 143.10 W/m2
02:49 25.8 °F 23.0 °F 29.84 in NNW 1.2 mph 0.2 mph 89% 0.00 in 143.10 W/m2
02:54 25.7 °F 22.9 °F 29.84 in Calm     89% 0.00 in 143.10 W/m2
02:59 25.6 °F 22.8 °F 29.84 in West 2.3 mph   89% 0.00 in 143.10 W/m2
03:04 25.4 °F 22.6 °F 29.85 in SW 1.2 mph   89% 0.00 in 143.10 W/m2
03:09 25.4 °F 22.6 °F 29.85 in Calm     89% 0.00 in 143.10 W/m2
03:14 25.4 °F 22.6 °F 29.85 in Calm     89% 0.00 in 143.10 W/m2
03:19 25.4 °F 22.6 °F 29.85 in Calm     89% 0.00 in 143.10 W/m2
03:24 25.3 °F 22.5 °F 29.85 in Calm     89% 0.00 in 143.10 W/m2
03:29 25.3 °F 22.5 °F 29.85 in Calm     89% 0.00 in 143.10 W/m2
03:34 25.3 °F 22.5 °F 29.85 in Calm     89% 0.00 in 143.10 W/m2
03:39 25.2 °F 22.4 °F 29.85 in NNE 1.2 mph 0.1 mph 89% 0.00 in 143.10 W/m2
03:44 25.1 °F 22.3 °F 29.86 in Calm     89% 0.01 in 143.10 W/m2
03:49 25.1 °F 22.3 °F 29.86 in SW 1.2 mph 0.8 mph 89% 0.01 in 143.10 W/m2
03:54 24.9 °F 22.1 °F 29.86 in West 3.5 mph   89% 0.01 in 143.10 W/m2
03:59 24.9 °F 21.8 °F 29.86 in Calm     88% 0.01 in 143.10 W/m2
04:04 24.8 °F 21.8 °F 29.86 in West 1.2 mph   88% 0.01 in 143.10 W/m2
04:09 24.8 °F 21.8 °F 29.86 in Calm     88% 0.01 in 143.10 W/m2
04:14 24.8 °F 22.0 °F 29.86 in WSW 2.3 mph   89% 0.01 in 143.10 W/m2
04:19 24.7 °F 21.9 °F 29.87 in Calm     89% 0.01 in 143.10 W/m2
04:24 24.7 °F 21.7 °F 29.87 in Calm     88% 0.01 in 143.10 W/m2
04:29 24.7 °F 21.9 °F 29.88 in Calm     89% 0.01 in 143.10 W/m2
04:34 24.7 °F 21.9 °F 29.88 in Calm     89% 0.01 in 143.10 W/m2
04:39 24.5 °F 21.7 °F 29.89 in Calm     89% 0.01 in 143.10 W/m2
04:44 24.4 °F 21.4 °F 29.89 in Calm     88% 0.00 in 143.10 W/m2
04:49 24.4 °F 21.4 °F 29.90 in Calm     88% 0.00 in 143.10 W/m2
04:54 24.2 °F 21.2 °F 29.90 in Calm     88% 0.00 in 143.10 W/m2
04:59 24.2 °F 21.2 °F 29.91 in Calm     88% 0.00 in 143.10 W/m2
05:04 24.0 °F 21.0 °F 29.91 in Calm     88% 0.00 in 143.10 W/m2
05:09 23.9 °F 20.9 °F 29.91 in Calm     88% 0.00 in 143.10 W/m2
05:14 23.8 °F 20.8 °F 29.91 in SSE 1.2 mph   88% 0.00 in 143.10 W/m2
05:19 23.8 °F 20.8 °F 29.92 in Calm     88% 0.00 in 143.10 W/m2
05:24 23.6 °F 20.6 °F 29.92 in Calm     88% 0.00 in 143.10 W/m2
05:29 23.6 °F 20.6 °F 29.92 in Calm     88% 0.00 in 143.10 W/m2
05:34 23.6 °F 20.6 °F 29.92 in Calm     88% 0.00 in 143.10 W/m2
05:39 23.6 °F 20.8 °F 29.93 in Calm     89% 0.00 in 143.10 W/m2
05:44 23.7 °F 20.9 °F 29.92 in Calm     89% 0.00 in 143.10 W/m2
05:49 23.7 °F 20.9 °F 29.93 in Calm     89% 0.00 in 143.10 W/m2
05:54 23.9 °F 21.1 °F 29.93 in Calm     89% 0.00 in 143.10 W/m2
05:59 23.9 °F 21.1 °F 29.93 in SW 2.3 mph   89% 0.00 in 143.10 W/m2
06:04 23.9 °F 20.9 °F 29.94 in Calm     88% 0.00 in 143.10 W/m2
06:09 24.0 °F 21.0 °F 29.94 in Calm     88% 0.00 in 143.10 W/m2
06:14 24.1 °F 21.1 °F 29.94 in Calm     88% 0.00 in 143.10 W/m2
06:19 24.1 °F 21.1 °F 29.94 in Calm     88% 0.00 in 143.10 W/m2
06:24 23.9 °F 20.9 °F 29.95 in Calm     88% 0.00 in 143.10 W/m2
06:29 23.8 °F 20.8 °F 29.95 in Calm     88% 0.00 in 143.10 W/m2
06:34 23.6 °F 20.6 °F 29.96 in Calm     88% 0.00 in 143.10 W/m2
06:39 23.5 °F 20.2 °F 29.96 in Calm     87% 0.00 in 143.10 W/m2
06:44 23.2 °F 19.9 °F 29.96 in Calm     87% 0.00 in 143.10 W/m2
06:49 22.9 °F 19.6 °F 29.97 in Calm   0.2 mph 87% 0.00 in 143.10 W/m2
06:54 22.7 °F 19.4 °F 29.97 in Calm     87% 0.00 in 143.10 W/m2
06:59 22.5 °F 19.2 °F 29.98 in Calm     87% 0.00 in 143.10 W/m2
07:04 22.3 °F 19.0 °F 29.98 in Calm     87% 0.00 in 143.10 W/m2
07:09 22.1 °F 18.8 °F 29.99 in Calm     87% 0.00 in 143.10 W/m2
07:14 22.0 °F 19.0 °F 29.99 in Calm     88% 0.00 in 143.10 W/m2
07:19 21.9 °F 18.6 °F 30.00 in Calm     87% 0.00 in 143.10 W/m2
07:24 21.7 °F 18.4 °F 30.00 in Calm     87% 0.00 in 143.10 W/m2
07:29 21.5 °F 18.2 °F 30.00 in Calm     87% 0.00 in 143.10 W/m2
07:34 21.3 °F 18.0 °F 30.01 in SSE 1.0 mph 0.2 mph 87% 0.00 in 143.10 W/m2
07:39 21.1 °F 17.8 °F 30.02 in Calm     87% 0.00 in 143.10 W/m2
07:44 20.9 °F 17.6 °F 30.02 in ESE 1.2 mph   87% 0.00 in 143.10 W/m2
07:49 20.8 °F 17.5 °F 30.02 in SW 2.3 mph   87% 0.00 in 143.10 W/m2
07:54 20.8 °F 17.5 °F 30.03 in SW 2.3 mph   87% 0.00 in 143.10 W/m2
07:59 20.8 °F 17.5 °F 30.04 in Calm     87% 0.00 in 143.10 W/m2
08:04 20.7 °F 17.7 °F 30.04 in Calm     88% 0.00 in 143.10 W/m2
08:09 20.7 °F 17.4 °F 30.04 in Calm   0.2 mph 87% 0.00 in 143.10 W/m2
08:14 20.7 °F 17.7 °F 30.05 in West 3.0 mph 0.4 mph 88% 0.00 in 143.10 W/m2
08:19 20.7 °F 17.7 °F 30.05 in WSW 2.0 mph 0.9 mph 88% 0.00 in 143.10 W/m2
08:24 20.8 °F 17.8 °F 30.05 in Calm     88% 0.00 in 143.10 W/m2
08:29 20.8 °F 17.5 °F 30.05 in SSW 1.2 mph   87% 0.00 in 143.10 W/m2
08:34 20.9 °F 17.6 °F 30.06 in Calm     87% 0.00 in 143.10 W/m2
08:39 20.9 °F 17.6 °F 30.06 in WNW 1.0 mph 0.4 mph 87% 0.00 in 143.10 W/m2
08:44 20.9 °F 17.6 °F 30.06 in Calm     87% 0.00 in 143.10 W/m2
08:49 20.9 °F 17.6 °F 30.07 in Calm     87% 0.00 in 143.10 W/m2
08:54 20.8 °F 17.3 °F 30.07 in Calm     86% 0.00 in 143.10 W/m2
08:59 20.6 °F 17.3 °F 30.07 in Calm     87% 0.00 in 143.10 W/m2
09:04 20.5 °F 17.2 °F 30.07 in Calm     87% 0.00 in 143.10 W/m2
09:09 20.4 °F 17.1 °F 30.08 in Calm     87% 0.00 in 143.10 W/m2
09:14 20.4 °F 17.1 °F 30.08 in Calm     87% 0.00 in 143.10 W/m2
09:19 20.5 °F 17.2 °F 30.08 in Calm     87% 0.00 in 143.10 W/m2
09:24 20.5 °F 17.2 °F 30.08 in Calm     87% 0.00 in 143.10 W/m2
09:29 20.6 °F 17.3 °F 30.08 in Calm     87% 0.00 in 143.10 W/m2
09:34 20.8 °F 17.5 °F 30.08 in Calm     87% 0.00 in 143.10 W/m2
09:39 21.0 °F 17.7 °F 30.08 in Calm   0.9 mph 87% 0.00 in 143.10 W/m2
09:44 21.3 °F 18.0 °F 30.08 in Calm     87% 0.00 in 143.10 W/m2
09:49 21.6 °F 18.3 °F 30.09 in Calm     87% 0.00 in 143.10 W/m2
09:54 21.7 °F 18.2 °F 30.09 in Calm     86% 0.00 in 143.10 W/m2
09:59 21.8 °F 18.3 °F 30.09 in WSW 2.3 mph   86% 0.00 in 143.10 W/m2
10:04 22.1 °F 18.6 °F 30.09 in WNW 3.5 mph 0.1 mph 86% 0.00 in 143.10 W/m2
10:09 22.3 °F 18.7 °F 30.10 in WNW 1.2 mph   86% 0.00 in 143.10 W/m2
10:14 22.4 °F 18.3 °F 30.10 in Calm     84% 0.00 in 143.10 W/m2
10:19 22.5 °F 18.4 °F 30.11 in South 1.0 mph 0.2 mph 84% 0.00 in 143.10 W/m2
10:24 22.3 °F 18.2 °F 30.11 in Calm     84% 0.00 in 143.10 W/m2
10:29 22.1 °F 18.0 °F 30.12 in East 1.2 mph   84% 0.00 in 143.10 W/m2
10:34 22.1 °F 18.3 °F 30.12 in WSW 1.0 mph 0.9 mph 85% 0.00 in 143.10 W/m2
10:39 22.1 °F 18.0 °F 30.12 in Calm     84% 0.00 in 143.10 W/m2
10:44 22.1 °F 18.0 °F 30.12 in Calm   0.5 mph 84% 0.00 in 143.10 W/m2
10:49 22.3 °F 18.5 °F 30.13 in Calm     85% 0.00 in 143.10 W/m2
10:54 22.4 °F 18.3 °F 30.13 in South 1.0 mph 0.1 mph 84% 0.00 in 143.10 W/m2
10:59 22.4 °F 18.3 °F 30.13 in South 1.2 mph 0.5 mph 84% 0.00 in 143.10 W/m2
11:04 22.7 °F 18.6 °F 30.13 in West 1.2 mph   84% 0.00 in 143.10 W/m2
11:09 23.0 °F 18.9 °F 30.13 in Calm   0.2 mph 84% 0.00 in 143.10 W/m2
11:14 23.2 °F 19.1 °F 30.14 in WNW 2.3 mph 1.7 mph 84% 0.00 in 143.10 W/m2
11:19 23.4 °F 19.3 °F 30.14 in WNW 2.0 mph 0.2 mph 84% 0.00 in 143.10 W/m2
11:24 23.4 °F 18.7 °F 30.14 in Calm     82% 0.00 in 143.10 W/m2
11:29 23.4 °F 19.0 °F 30.14 in WNW 4.6 mph 0.8 mph 83% 0.00 in 143.10 W/m2
11:34 23.4 °F 19.0 °F 30.15 in South 2.3 mph   83% 0.00 in 143.10 W/m2
Winter, Wisconsin USA
Compliments of Weather Underground - 2 mb